EXS92SG LDDU-EGCC
Flight info
| Callsign | EXS92SG |
|---|---|
| Flight time | N/A |
| Altitude | 36000 |
| Route | AMUGO DCT UNIPA DCT KOTOR DCT GORPA DCT SIMBA DCT KEMES DCT GASKA DCT MAPOX DCT GALSO Q63 ERING L179 LAM UN57 WELIN T420 ELVOS |
| Aircraft | A21N/M-SDE2E3FGHIJ1RWXY/LB1 |
Departure
| Time | 2026-04-30 12:29 |
|---|---|
| Airport | Dubrovnik Ruđer Bošković Airport (LDDU) |
Arrival
| Time | N/A |
|---|---|
| Airport | Manchester Airport (EGCC) |
| Time | Latitude | Longitude | Altitude | Speed | Heading |
|---|---|---|---|---|---|
| 2026-04-30 11:38 | 42.56089 | 18.26304 | 527 ft | 0 kts | 208° |
| 2026-04-30 12:19 | 42.56092 | 18.26305 | 527 ft | 2 kts | 208° |
| 2026-04-30 12:20 | 42.56107 | 18.26316 | 527 ft | 3 kts | 209° |
| 2026-04-30 12:20 | 42.56122 | 18.26331 | 528 ft | 3 kts | 230° |
| 2026-04-30 12:20 | 42.56131 | 18.26352 | 529 ft | 3 kts | 267° |
| 2026-04-30 12:20 | 42.56127 | 18.26375 | 529 ft | 3 kts | 298° |
| 2026-04-30 12:21 | 42.56120 | 18.26393 | 529 ft | 1 kts | 298° |
| 2026-04-30 12:24 | 42.56132 | 18.26364 | 529 ft | 8 kts | 298° |
| 2026-04-30 12:24 | 42.56162 | 18.26288 | 529 ft | 10 kts | 302° |
| 2026-04-30 12:24 | 42.56199 | 18.26200 | 529 ft | 12 kts | 299° |
| 2026-04-30 12:25 | 42.56241 | 18.26098 | 529 ft | 13 kts | 298° |
| 2026-04-30 12:25 | 42.56283 | 18.25981 | 529 ft | 14 kts | 296° |
| 2026-04-30 12:25 | 42.56334 | 18.25856 | 529 ft | 16 kts | 299° |
| 2026-04-30 12:25 | 42.56389 | 18.25720 | 529 ft | 17 kts | 298° |
| 2026-04-30 12:26 | 42.56448 | 18.25574 | 531 ft | 18 kts | 298° |
| 2026-04-30 12:26 | 42.56509 | 18.25417 | 530 ft | 19 kts | 297° |
| 2026-04-30 12:26 | 42.56570 | 18.25252 | 527 ft | 20 kts | 298° |
| 2026-04-30 12:26 | 42.56639 | 18.25084 | 530 ft | 21 kts | 299° |
| 2026-04-30 12:27 | 42.56711 | 18.24909 | 530 ft | 22 kts | 298° |
| 2026-04-30 12:27 | 42.56778 | 18.24740 | 531 ft | 17 kts | 299° |
| 2026-04-30 12:27 | 42.56878 | 18.24676 | 530 ft | 18 kts | 24° |
| 2026-04-30 12:27 | 42.56941 | 18.24785 | 531 ft | 12 kts | 86° |
| 2026-04-30 12:28 | 42.56932 | 18.24829 | 531 ft | 0 kts | 117° |
| 2026-04-30 12:28 | 42.56920 | 18.24858 | 531 ft | 20 kts | 118° |
| 2026-04-30 12:28 | 42.56733 | 18.25322 | 530 ft | 90 kts | 117° |
| 2026-04-30 12:29 | 42.56346 | 18.26306 | 532 ft | 144 kts | 115° |
| 2026-04-30 12:29 | 42.55805 | 18.27628 | 696 ft | 166 kts | 112° |
| 2026-04-30 12:29 | 42.55255 | 18.28982 | 1283 ft | 164 kts | 110° |
| 2026-04-30 12:29 | 42.54711 | 18.30388 | 1855 ft | 175 kts | 112° |
| 2026-04-30 12:30 | 42.54118 | 18.31901 | 2352 ft | 189 kts | 115° |
| 2026-04-30 12:30 | 42.53451 | 18.33520 | 2915 ft | 205 kts | 122° |
| 2026-04-30 12:30 | 42.52342 | 18.34821 | 3569 ft | 219 kts | 152° |
| 2026-04-30 12:30 | 42.50835 | 18.35216 | 4276 ft | 227 kts | 184° |
| 2026-04-30 12:31 | 42.49344 | 18.34510 | 4996 ft | 229 kts | 216° |
| 2026-04-30 12:31 | 42.48263 | 18.32988 | 5725 ft | 228 kts | 240° |
| 2026-04-30 12:31 | 42.47377 | 18.31192 | 6510 ft | 232 kts | 230° |
| 2026-04-30 12:31 | 42.46025 | 18.29976 | 7210 ft | 240 kts | 201° |
| 2026-04-30 12:32 | 42.44397 | 18.29397 | 7954 ft | 243 kts | 195° |
| 2026-04-30 12:32 | 42.42733 | 18.28906 | 8711 ft | 245 kts | 195° |
| 2026-04-30 12:32 | 42.41096 | 18.28276 | 9452 ft | 245 kts | 210° |
| 2026-04-30 12:32 | 42.39791 | 18.26874 | 10115 ft | 239 kts | 240° |
| 2026-04-30 12:33 | 42.39193 | 18.24784 | 10531 ft | 245 kts | 269° |
| 2026-04-30 12:33 | 42.39419 | 18.22446 | 10787 ft | 261 kts | 289° |
| 2026-04-30 12:33 | 42.40034 | 18.20057 | 11225 ft | 275 kts | 291° |
| 2026-04-30 12:33 | 42.40679 | 18.17597 | 11918 ft | 280 kts | 290° |
| 2026-04-30 12:34 | 42.41308 | 18.15086 | 12710 ft | 282 kts | 290° |
| 2026-04-30 12:34 | 42.41910 | 18.12579 | 13482 ft | 285 kts | 289° |
| 2026-04-30 12:34 | 42.42527 | 18.09979 | 13983 ft | 299 kts | 289° |
| 2026-04-30 12:34 | 42.43178 | 18.07212 | 14250 ft | 317 kts | 289° |
| 2026-04-30 12:35 | 42.43854 | 18.04303 | 14671 ft | 328 kts | 289° |
| 2026-04-30 12:35 | 42.44549 | 18.01339 | 15321 ft | 331 kts | 289° |
| 2026-04-30 12:35 | 42.45524 | 17.98512 | 16026 ft | 333 kts | 303° |
| 2026-04-30 12:35 | 42.47095 | 17.96208 | 16739 ft | 336 kts | 319° |
| 2026-04-30 12:36 | 42.49016 | 17.94378 | 17449 ft | 339 kts | 323° |
| 2026-04-30 12:36 | 42.51000 | 17.92615 | 18139 ft | 342 kts | 323° |
| 2026-04-30 12:36 | 42.52988 | 17.90836 | 18744 ft | 344 kts | 322° |
| 2026-04-30 12:36 | 42.54979 | 17.89017 | 19305 ft | 346 kts | 321° |
| 2026-04-30 12:37 | 42.56981 | 17.87193 | 19868 ft | 348 kts | 321° |
| 2026-04-30 12:37 | 42.58992 | 17.85348 | 20418 ft | 350 kts | 321° |
| 2026-04-30 12:37 | 42.61007 | 17.83478 | 20963 ft | 352 kts | 320° |
| 2026-04-30 12:37 | 42.63035 | 17.81594 | 21529 ft | 354 kts | 321° |
| 2026-04-30 12:38 | 42.65052 | 17.79720 | 22024 ft | 357 kts | 321° |
| 2026-04-30 12:38 | 42.67112 | 17.77806 | 22547 ft | 360 kts | 320° |
| 2026-04-30 12:38 | 42.69185 | 17.75872 | 23073 ft | 363 kts | 320° |
| 2026-04-30 12:38 | 42.71283 | 17.73925 | 23589 ft | 366 kts | 321° |
| 2026-04-30 12:39 | 42.73394 | 17.71966 | 24038 ft | 368 kts | 321° |
| 2026-04-30 12:39 | 42.75512 | 17.69997 | 24490 ft | 370 kts | 320° |
| 2026-04-30 12:39 | 42.77643 | 17.68022 | 24929 ft | 371 kts | 320° |
| 2026-04-30 12:39 | 42.79780 | 17.66032 | 25366 ft | 372 kts | 320° |
| 2026-04-30 12:40 | 42.81921 | 17.64031 | 25801 ft | 374 kts | 320° |
| 2026-04-30 12:40 | 42.84043 | 17.62046 | 26209 ft | 375 kts | 320° |
| 2026-04-30 12:40 | 42.86203 | 17.60026 | 26649 ft | 377 kts | 321° |
| 2026-04-30 12:40 | 42.88379 | 17.57995 | 27030 ft | 380 kts | 321° |
| 2026-04-30 12:41 | 42.90564 | 17.55947 | 27408 ft | 382 kts | 320° |
| 2026-04-30 12:41 | 42.92750 | 17.53875 | 27786 ft | 383 kts | 320° |
| 2026-04-30 12:41 | 42.94941 | 17.51791 | 28167 ft | 385 kts | 320° |
| 2026-04-30 12:41 | 42.97143 | 17.49700 | 28537 ft | 387 kts | 320° |
| 2026-04-30 12:42 | 42.99367 | 17.47597 | 28902 ft | 389 kts | 320° |
| 2026-04-30 12:42 | 43.01593 | 17.45495 | 29273 ft | 390 kts | 320° |
| 2026-04-30 12:42 | 43.03830 | 17.43385 | 29618 ft | 392 kts | 320° |
| 2026-04-30 12:42 | 43.06082 | 17.41277 | 29929 ft | 393 kts | 321° |
| 2026-04-30 12:43 | 43.08356 | 17.39177 | 30236 ft | 395 kts | 322° |
| 2026-04-30 12:43 | 43.10632 | 17.37057 | 30457 ft | 398 kts | 321° |
| 2026-04-30 12:43 | 43.12923 | 17.34907 | 30694 ft | 400 kts | 321° |
| 2026-04-30 12:43 | 43.15222 | 17.32738 | 30928 ft | 402 kts | 321° |
| 2026-04-30 12:44 | 43.17528 | 17.30552 | 31173 ft | 404 kts | 321° |
| 2026-04-30 12:44 | 43.19818 | 17.28377 | 31415 ft | 406 kts | 321° |
| 2026-04-30 12:44 | 43.22152 | 17.26168 | 31658 ft | 408 kts | 321° |
| 2026-04-30 12:44 | 43.24484 | 17.23944 | 31914 ft | 409 kts | 321° |
| 2026-04-30 12:45 | 43.26825 | 17.21727 | 32223 ft | 409 kts | 321° |
| 2026-04-30 12:45 | 43.29162 | 17.19514 | 32533 ft | 408 kts | 321° |
| 2026-04-30 12:45 | 43.31497 | 17.17297 | 32880 ft | 408 kts | 322° |
| 2026-04-30 12:45 | 43.33830 | 17.15079 | 33121 ft | 409 kts | 322° |
| 2026-04-30 12:46 | 43.36170 | 17.12841 | 33391 ft | 409 kts | 322° |
| 2026-04-30 12:46 | 43.38503 | 17.10607 | 33667 ft | 408 kts | 321° |
| 2026-04-30 12:46 | 43.40830 | 17.08367 | 33929 ft | 408 kts | 322° |
| 2026-04-30 12:46 | 43.43160 | 17.06139 | 34170 ft | 407 kts | 321° |
| 2026-04-30 12:47 | 43.45478 | 17.03893 | 34362 ft | 407 kts | 322° |
| 2026-04-30 12:47 | 43.47810 | 17.01661 | 34547 ft | 408 kts | 322° |
| 2026-04-30 12:47 | 43.49405 | 17.00137 | 34677 ft | 408 kts | 322° |
| 2026-04-30 12:47 | 43.51734 | 16.97913 | 34843 ft | 408 kts | 322° |
| 2026-04-30 12:48 | 43.54079 | 16.95691 | 35003 ft | 408 kts | 322° |
| 2026-04-30 12:48 | 43.56386 | 16.93492 | 35154 ft | 409 kts | 322° |
| 2026-04-30 12:48 | 43.58725 | 16.91245 | 35321 ft | 409 kts | 322° |
| 2026-04-30 12:48 | 43.61062 | 16.88998 | 35472 ft | 409 kts | 322° |
| 2026-04-30 12:49 | 43.63399 | 16.86740 | 35600 ft | 410 kts | 322° |
| 2026-04-30 12:49 | 43.65766 | 16.84526 | 35740 ft | 412 kts | 326° |
| 2026-04-30 12:49 | 43.68309 | 16.82680 | 35869 ft | 414 kts | 330° |
| 2026-04-30 12:49 | 43.70908 | 16.80943 | 35999 ft | 415 kts | 330° |
| 2026-04-30 12:50 | 43.73514 | 16.79210 | 36133 ft | 415 kts | 330° |
| 2026-04-30 12:50 | 43.76115 | 16.77461 | 36261 ft | 417 kts | 330° |
| 2026-04-30 12:50 | 43.81324 | 16.73913 | 36249 ft | 416 kts | 330° |
| 2026-04-30 12:51 | 43.86491 | 16.70400 | 36241 ft | 417 kts | 330° |
| 2026-04-30 12:51 | 43.91687 | 16.66840 | 36257 ft | 417 kts | 330° |
| 2026-04-30 12:52 | 43.96892 | 16.63275 | 36292 ft | 416 kts | 330° |
| 2026-04-30 12:52 | 44.02091 | 16.59720 | 36286 ft | 417 kts | 331° |
| 2026-04-30 12:53 | 44.07295 | 16.56162 | 36284 ft | 416 kts | 330° |
| 2026-04-30 12:53 | 44.12496 | 16.52581 | 36286 ft | 417 kts | 331° |
| 2026-04-30 12:54 | 44.17697 | 16.48995 | 36282 ft | 417 kts | 331° |
| 2026-04-30 12:54 | 44.22908 | 16.45387 | 36293 ft | 418 kts | 331° |
| 2026-04-30 12:55 | 44.28108 | 16.41769 | 36295 ft | 419 kts | 331° |
| 2026-04-30 12:55 | 44.33292 | 16.38172 | 36293 ft | 420 kts | 331° |
| 2026-04-30 12:56 | 44.38507 | 16.34545 | 36301 ft | 419 kts | 330° |
| 2026-04-30 12:56 | 44.43708 | 16.30908 | 36298 ft | 419 kts | 332° |
| 2026-04-30 12:57 | 44.48946 | 16.27256 | 36316 ft | 421 kts | 332° |
| 2026-04-30 12:57 | 44.54189 | 16.23587 | 36329 ft | 421 kts | 332° |
| 2026-04-30 12:58 | 44.59426 | 16.19916 | 36327 ft | 421 kts | 332° |
| 2026-04-30 12:58 | 44.64616 | 16.16261 | 36347 ft | 418 kts | 332° |
| 2026-04-30 12:59 | 44.69820 | 16.12591 | 36340 ft | 419 kts | 332° |
| 2026-04-30 12:59 | 44.75037 | 16.08925 | 36338 ft | 419 kts | 332° |
| 2026-04-30 13:00 | 44.80251 | 16.05254 | 36357 ft | 419 kts | 332° |
| 2026-04-30 13:00 | 44.85457 | 16.01561 | 36370 ft | 418 kts | 332° |
| 2026-04-30 13:01 | 44.90659 | 15.97856 | 36364 ft | 419 kts | 332° |
| 2026-04-30 13:01 | 44.95843 | 15.94204 | 36358 ft | 419 kts | 332° |
| 2026-04-30 13:02 | 45.01052 | 15.90522 | 36364 ft | 419 kts | 332° |
| 2026-04-30 13:02 | 45.06253 | 15.86812 | 36369 ft | 419 kts | 332° |
| 2026-04-30 13:03 | 45.11460 | 15.83089 | 36376 ft | 419 kts | 332° |
| 2026-04-30 13:03 | 45.16666 | 15.79358 | 36377 ft | 419 kts | 332° |
| 2026-04-30 13:04 | 45.20998 | 15.76251 | 36378 ft | 419 kts | 332° |
| 2026-04-30 13:04 | 45.26199 | 15.72506 | 36387 ft | 419 kts | 332° |
| 2026-04-30 13:05 | 45.31418 | 15.68747 | 36392 ft | 420 kts | 333° |
| 2026-04-30 13:06 | 45.39245 | 15.63088 | 36384 ft | 421 kts | 333° |
| 2026-04-30 13:06 | 45.44464 | 15.59310 | 36396 ft | 421 kts | 333° |
| 2026-04-30 13:07 | 45.49677 | 15.55521 | 36396 ft | 420 kts | 332° |
| 2026-04-30 13:07 | 45.54907 | 15.51717 | 36401 ft | 422 kts | 333° |
| 2026-04-30 13:08 | 45.60139 | 15.47905 | 36400 ft | 422 kts | 333° |
| 2026-04-30 13:08 | 45.65365 | 15.44074 | 36411 ft | 422 kts | 333° |
| 2026-04-30 13:09 | 45.70564 | 15.40274 | 36408 ft | 422 kts | 333° |
| 2026-04-30 13:09 | 45.75792 | 15.36435 | 36405 ft | 422 kts | 333° |
| 2026-04-30 13:10 | 45.80849 | 15.32154 | 36411 ft | 422 kts | 328° |
| 2026-04-30 13:10 | 45.85821 | 15.27650 | 36406 ft | 422 kts | 328° |
| 2026-04-30 13:11 | 45.90794 | 15.23153 | 36407 ft | 422 kts | 328° |
| 2026-04-30 13:11 | 45.95764 | 15.18648 | 36420 ft | 423 kts | 328° |
| 2026-04-30 13:12 | 46.00759 | 15.14107 | 36400 ft | 425 kts | 328° |
| 2026-04-30 13:12 | 46.05725 | 15.09586 | 36402 ft | 425 kts | 328° |
| 2026-04-30 13:13 | 46.13219 | 15.02745 | 36393 ft | 425 kts | 328° |
| 2026-04-30 13:14 | 46.20704 | 14.95889 | 36393 ft | 426 kts | 328° |
| 2026-04-30 13:14 | 46.28241 | 14.88968 | 36371 ft | 428 kts | 329° |
| 2026-04-30 13:15 | 46.35717 | 14.82071 | 36365 ft | 427 kts | 329° |
| 2026-04-30 13:16 | 46.40730 | 14.77435 | 36373 ft | 427 kts | 329° |
| 2026-04-30 13:16 | 46.45735 | 14.72803 | 36366 ft | 427 kts | 329° |
| 2026-04-30 13:17 | 46.53259 | 14.65809 | 36333 ft | 428 kts | 329° |
| 2026-04-30 13:18 | 46.60730 | 14.58765 | 36346 ft | 427 kts | 329° |
| 2026-04-30 13:18 | 46.68185 | 14.51760 | 36350 ft | 427 kts | 329° |
| 2026-04-30 13:19 | 46.73197 | 14.47054 | 36348 ft | 427 kts | 330° |
| 2026-04-30 13:19 | 46.78201 | 14.42362 | 36348 ft | 427 kts | 330° |
| 2026-04-30 13:20 | 46.83195 | 14.37664 | 36322 ft | 427 kts | 330° |
| 2026-04-30 13:20 | 46.88202 | 14.32966 | 36344 ft | 426 kts | 330° |
| 2026-04-30 13:21 | 46.93172 | 14.28303 | 36344 ft | 426 kts | 330° |
| 2026-04-30 13:22 | 47.00650 | 14.21200 | 36331 ft | 427 kts | 330° |
| 2026-04-30 13:22 | 47.08129 | 14.14118 | 36338 ft | 427 kts | 330° |
| 2026-04-30 13:23 | 47.15573 | 14.06944 | 36331 ft | 426 kts | 330° |
| 2026-04-30 13:24 | 47.25476 | 13.97402 | 36326 ft | 425 kts | 331° |
| 2026-04-30 13:25 | 47.35375 | 13.87954 | 36326 ft | 425 kts | 331° |
| 2026-04-30 13:26 | 47.47761 | 13.75979 | 36335 ft | 426 kts | 331° |
| 2026-04-30 13:28 | 47.60146 | 13.63911 | 36363 ft | 426 kts | 331° |
| 2026-04-30 13:28 | 47.67562 | 13.56647 | 36375 ft | 425 kts | 332° |